Sand Creek, Michigan
Current Conditions -  °F | °C
As of 7:53 AM on Wednesday 22 Oct 2014 (Local Time) from KADG Reporting Station
Overcast Overcast  
Wind Chill:   Ceiling: 2600
Heat Index:   Visibility: 10mi
Dew Point:   Wind: 9mph
Humidity: 80%   Direction: 340°NNW
Pressure: 30.3"   Gusts: NA
Location:  41.83°N, 84.1°W
Report Text: KADG 221153Z AUTO 34008KT 10SM OVC026 06/03 A3030 RMK AO2 SLP268 T00610028 10061 20056 51016
Loading
Personal Weather Stations






























Interactive Weather Map
Tropical Storm Tracking
New forecast layout! Learn more

10-Day Weather Forecast

Advertisements
Track Severe Weather on mobile